Time,TemperatureF,DewpointF,PressureIn,WindDirection,WindDirectionDegrees,WindSpeedMPH,WindSpeedGustMPH,Humidity,HourlyPrecipIn,Conditions,Clouds,dailyrainin,SoftwareType,DateUTC
2013-02-11 00:01:00,39.0,24.1,30.00,North,0,5.6,9.4,55,0.00,,,0.00,WUHU21623XXSP,2013-02-11 08:01:00,
2013-02-11 00:06:00,38.8,25.2,30.00,NNE,22,2.9,15.0,58,0.00,,,0.00,WUHU21623XXSP,2013-02-11 08:06:00,
2013-02-11 00:11:00,38.5,25.3,30.00,North,0,0.0,15.0,59,0.00,,,0.00,WUHU21623XXSP,2013-02-11 08:11:00,
2013-02-11 00:16:00,38.7,25.5,30.00,North,0,0.0,11.2,59,0.00,,,0.00,WUHU21623XXSP,2013-02-11 08:16:00,
2013-02-11 00:21:00,38.7,25.5,30.00,North,0,0.0,7.4,59,0.00,,,0.00,WUHU21623XXSP,2013-02-11 08:21:00,
2013-02-11 00:26:00,38.5,25.8,30.00,NE,45,0.0,7.6,60,0.00,,,0.00,WUHU21623XXSP,2013-02-11 08:26:00,
2013-02-11 00:31:00,38.5,25.8,30.00,NNE,22,0.0,7.6,60,0.00,,,0.00,WUHU21623XXSP,2013-02-11 08:31:00,
2013-02-11 00:36:00,38.5,25.8,30.00,NNE,22,0.0,7.6,60,0.00,,,0.00,WUHU21623XXSP,2013-02-11 08:36:00,
2013-02-11 00:41:00,38.1,26.2,30.00,NNW,337,0.0,11.6,62,0.00,,,0.00,WUHU21623XXSP,2013-02-11 08:41:00,
2013-02-11 00:46:00,37.6,26.5,30.01,North,0,13.0,13.0,64,0.00,,,0.00,WUHU21623XXSP,2013-02-11 08:46:00,
2013-02-11 00:51:00,37.2,26.5,30.01,North,0,8.5,13.9,65,0.00,,,0.00,WUHU21623XXSP,2013-02-11 08:51:00,
2013-02-11 00:56:00,37.2,26.9,30.01,NNW,337,6.5,14.3,66,0.00,,,0.00,WUHU21623XXSP,2013-02-11 08:56:00,
2013-02-11 01:01:00,36.9,26.5,30.02,North,0,0.0,17.4,66,0.00,,,0.00,WUHU21623XXSP,2013-02-11 09:01:00,
2013-02-11 01:06:00,36.5,26.6,30.02,North,0,5.6,17.4,67,0.00,,,0.00,WUHU21623XXSP,2013-02-11 09:06:00,
2013-02-11 01:11:00,35.8,26.6,30.02,North,0,9.2,21.3,69,0.00,,,0.00,WUHU21623XXSP,2013-02-11 09:11:00,
2013-02-11 01:16:00,35.2,26.4,30.02,NNE,22,6.3,21.3,70,0.00,,,0.00,WUHU21623XXSP,2013-02-11 09:16:00,
2013-02-11 01:21:00,34.7,26.5,30.02,NNE,22,9.2,19.5,72,0.00,,,0.00,WUHU21623XXSP,2013-02-11 09:21:00,
2013-02-11 01:26:00,34.3,26.5,30.02,NNE,22,14.5,16.6,73,0.00,,,0.00,WUHU21623XXSP,2013-02-11 09:26:00,
2013-02-11 01:31:00,34.3,26.8,30.02,NE,45,2.7,16.6,74,0.00,,,0.00,WUHU21623XXSP,2013-02-11 09:31:00,
2013-02-11 01:36:00,34.2,27.3,30.02,North,0,0.0,12.8,75,0.00,,,0.00,WUHU21623XXSP,2013-02-11 09:36:00,
2013-02-11 01:41:00,34.5,27.3,30.02,North,0,0.0,9.2,75,0.00,,,0.00,WUHU21623XXSP,2013-02-11 09:41:00,
2013-02-11 01:46:00,35.2,27.7,30.01,NNW,337,0.0,0.0,74,0.00,,,0.00,WUHU21623XXSP,2013-02-11 09:46:00,
2013-02-11 01:51:00,35.8,27.9,30.01,NNW,337,0.0,0.0,73,0.00,,,0.00,WUHU21623XXSP,2013-02-11 09:51:00,
2013-02-11 01:56:00,35.8,27.6,30.01,NNW,337,0.0,0.0,72,0.00,,,0.00,WUHU21623XXSP,2013-02-11 09:56:00,
2013-02-11 02:01:00,35.8,27.6,30.00,NNW,337,0.0,0.0,72,0.00,,,0.00,WUHU21623XXSP,2013-02-11 10:01:00,
2013-02-11 02:06:00,34.9,27.0,30.01,NNW,337,0.0,0.0,73,0.00,,,0.00,WUHU21623XXSP,2013-02-11 10:06:00,
2013-02-11 02:11:00,34.9,27.0,30.01,NNW,337,0.0,0.0,73,0.00,,,0.00,WUHU21623XXSP,2013-02-11 10:11:00,
2013-02-11 02:16:00,34.7,26.9,30.00,NNW,337,0.0,0.0,73,0.00,,,0.00,WUHU21623XXSP,2013-02-11 10:16:00,
2013-02-11 02:21:00,34.7,26.9,30.00,NNW,337,0.0,0.0,73,0.00,,,0.00,WUHU21623XXSP,2013-02-11 10:21:00,
2013-02-11 02:26:00,34.5,26.7,30.00,NNW,337,0.0,0.0,73,0.00,,,0.00,WUHU21623XXSP,2013-02-11 10:26:00,
2013-02-11 02:31:00,34.5,26.3,30.00,North,0,0.0,0.0,72,0.00,,,0.00,WUHU21623XXSP,2013-02-11 10:31:00,
2013-02-11 02:36:00,35.2,26.7,29.99,North,0,0.0,0.0,71,0.00,,,0.00,WUHU21623XXSP,2013-02-11 10:36:00,
2013-02-11 02:41:00,35.2,26.4,29.99,North,0,0.0,0.0,70,0.00,,,0.00,WUHU21623XXSP,2013-02-11 10:41:00,
2013-02-11 02:46:00,35.4,26.6,29.99,North,0,0.0,0.0,70,0.00,,,0.00,WUHU21623XXSP,2013-02-11 10:46:00,
2013-02-11 02:51:00,35.2,26.4,29.99,North,0,0.0,0.0,70,0.00,,,0.00,WUHU21623XXSP,2013-02-11 10:51:00,
2013-02-11 02:56:00,35.1,25.9,29.99,North,0,0.0,0.0,69,0.00,,,0.00,WUHU21623XXSP,2013-02-11 10:56:00,
2013-02-11 03:01:00,35.2,26.4,29.99,North,0,0.0,0.0,70,0.00,,,0.00,WUHU21623XXSP,2013-02-11 11:01:00,
2013-02-11 03:06:00,35.4,26.2,29.99,North,0,0.0,0.0,69,0.00,,,0.00,WUHU21623XXSP,2013-02-11 11:06:00,
2013-02-11 03:11:00,35.2,26.4,29.98,North,0,0.0,0.0,70,0.00,,,0.00,WUHU21623XXSP,2013-02-11 11:11:00,
2013-02-11 03:16:00,34.5,26.0,29.98,North,0,0.0,0.0,71,0.00,,,0.00,WUHU21623XXSP,2013-02-11 11:16:00,
2013-02-11 03:21:00,34.3,25.5,29.98,North,0,0.0,0.0,70,0.00,,,0.00,WUHU21623XXSP,2013-02-11 11:21:00,
2013-02-11 03:26:00,34.7,25.9,29.98,North,0,0.0,0.0,70,0.00,,,0.00,WUHU21623XXSP,2013-02-11 11:26:00,
2013-02-11 03:31:00,34.3,25.5,29.98,North,0,0.0,0.0,70,0.00,,,0.00,WUHU21623XXSP,2013-02-11 11:31:00,
2013-02-11 03:36:00,35.2,26.4,29.98,North,0,0.0,0.0,70,0.00,,,0.00,WUHU21623XXSP,2013-02-11 11:36:00,
2013-02-11 03:41:00,35.6,26.8,29.98,North,0,0.0,0.0,70,0.00,,,0.00,WUHU21623XXSP,2013-02-11 11:41:00,
2013-02-11 03:46:00,35.4,26.2,29.98,North,0,0.0,0.0,69,0.00,,,0.00,WUHU21623XXSP,2013-02-11 11:46:00,
2013-02-11 03:52:00,35.2,26.1,29.98,North,0,0.0,0.0,69,0.00,,,0.00,WUHU21623XXSP,2013-02-11 11:52:00,
2013-02-11 03:57:00,35.2,25.7,29.98,North,0,0.0,0.0,68,0.00,,,0.00,WUHU21623XXSP,2013-02-11 11:57:00,
2013-02-11 04:02:00,35.4,25.5,29.98,North,0,0.0,0.0,67,0.00,,,0.00,WUHU21623XXSP,2013-02-11 12:02:00,
2013-02-11 04:07:00,34.9,25.0,29.98,North,0,0.0,0.0,67,0.00,,,0.00,WUHU21623XXSP,2013-02-11 12:07:00,
2013-02-11 04:12:00,34.7,24.8,29.98,North,0,0.0,0.0,67,0.00,,,0.00,WUHU21623XXSP,2013-02-11 12:12:00,
2013-02-11 04:17:00,34.3,24.1,29.98,North,0,0.0,0.0,66,0.00,,,0.00,WUHU21623XXSP,2013-02-11 12:17:00,
2013-02-11 04:22:00,34.5,24.3,29.98,NNE,22,0.0,0.0,66,0.00,,,0.00,WUHU21623XXSP,2013-02-11 12:22:00,
2013-02-11 04:27:00,35.1,24.4,29.99,North,0,0.0,0.0,65,0.00,,,0.00,WUHU21623XXSP,2013-02-11 12:27:00,
2013-02-11 04:32:00,35.2,24.3,29.99,NW,315,15.7,15.7,64,0.00,,,0.00,WUHU21623XXSP,2013-02-11 12:32:00,
2013-02-11 04:37:00,35.4,24.1,29.99,North,0,1.8,15.7,63,0.00,,,0.00,WUHU21623XXSP,2013-02-11 12:37:00,
2013-02-11 04:42:00,35.4,23.4,29.99,NNW,337,8.7,14.3,61,0.00,,,0.00,WUHU21623XXSP,2013-02-11 12:42:00,
2013-02-11 04:47:00,35.4,23.4,29.99,North,0,1.1,16.8,61,0.00,,,0.00,WUHU21623XXSP,2013-02-11 12:47:00,
2013-02-11 04:52:00,35.4,23.0,30.00,North,0,10.5,16.8,60,0.00,,,0.00,WUHU21623XXSP,2013-02-11 12:52:00,
2013-02-11 04:57:00,35.4,23.0,29.99,North,0,0.0,15.4,60,0.00,,,0.00,WUHU21623XXSP,2013-02-11 12:57:00,
2013-02-11 05:02:00,35.8,23.3,30.00,North,0,2.7,14.1,60,0.00,,,0.00,WUHU21623XXSP,2013-02-11 13:02:00,
2013-02-11 05:07:00,35.8,22.9,29.99,North,0,0.0,13.9,59,0.00,,,0.00,WUHU21623XXSP,2013-02-11 13:07:00,
2013-02-11 05:12:00,35.8,22.5,30.00,North,0,0.0,13.9,58,0.00,,,0.00,WUHU21623XXSP,2013-02-11 13:12:00,
2013-02-11 05:17:00,36.0,23.1,30.00,North,0,0.0,11.0,59,0.00,,,0.00,WUHU21623XXSP,2013-02-11 13:17:00,
2013-02-11 05:22:00,36.0,23.1,30.00,NNW,337,0.0,6.0,59,0.00,,,0.00,WUHU21623XXSP,2013-02-11 13:22:00,
2013-02-11 05:27:00,36.0,22.6,30.00,NNW,337,0.0,12.3,58,0.00,,,0.00,WUHU21623XXSP,2013-02-11 13:27:00,
2013-02-11 05:32:00,35.8,22.0,30.00,North,0,1.3,15.2,57,0.00,,,0.00,WUHU21623XXSP,2013-02-11 13:32:00,
2013-02-11 05:37:00,35.8,21.6,30.01,NNW,337,6.5,15.2,56,0.00,,,0.00,WUHU21623XXSP,2013-02-11 13:37:00,
2013-02-11 05:42:00,35.6,21.5,30.01,NNW,337,0.0,17.2,56,0.00,,,0.00,WUHU21623XXSP,2013-02-11 13:42:00,
2013-02-11 05:47:00,35.4,21.3,30.01,NNW,337,4.5,17.2,56,0.00,,,0.00,WUHU21623XXSP,2013-02-11 13:47:00,
2013-02-11 05:52:00,35.4,20.8,30.01,NNW,337,11.9,14.8,55,0.00,,,0.00,WUHU21623XXSP,2013-02-11 13:52:00,
2013-02-11 05:57:00,35.8,21.2,30.01,NNW,337,0.0,13.6,55,0.00,,,0.00,WUHU21623XXSP,2013-02-11 13:57:00,
2013-02-11 06:02:00,35.8,20.8,30.01,NW,315,10.1,10.5,54,0.00,,,0.00,WUHU21623XXSP,2013-02-11 14:02:00,
2013-02-11 06:07:00,35.8,20.8,30.01,North,0,4.9,10.1,54,0.00,,,0.00,WUHU21623XXSP,2013-02-11 14:07:00,
2013-02-11 06:12:00,35.4,20.4,30.01,NNW,337,4.5,17.0,54,0.00,,,0.00,WUHU21623XXSP,2013-02-11 14:12:00,
2013-02-11 06:17:00,35.4,20.4,30.02,NNW,337,2.0,17.0,54,0.00,,,0.00,WUHU21623XXSP,2013-02-11 14:17:00,
2013-02-11 06:22:00,35.4,20.0,30.02,NNW,337,3.1,9.6,53,0.00,,,0.00,WUHU21623XXSP,2013-02-11 14:22:00,
2013-02-11 06:27:00,35.2,19.4,30.02,North,0,0.0,15.2,52,0.00,,,0.00,WUHU21623XXSP,2013-02-11 14:27:00,
2013-02-11 06:32:00,34.9,19.0,30.02,North,0,0.0,15.2,52,0.00,,,0.00,WUHU21623XXSP,2013-02-11 14:32:00,
2013-02-11 06:37:00,34.5,18.6,30.02,NNE,22,8.7,12.3,52,0.00,,,0.00,WUHU21623XXSP,2013-02-11 14:37:00,
2013-02-11 06:43:00,34.5,18.6,30.02,NNE,22,0.0,11.2,52,0.00,,,0.00,WUHU21623XXSP,2013-02-11 14:43:00,
2013-02-11 06:48:00,34.7,18.4,30.02,NNE,22,3.4,14.8,51,0.00,,,0.00,WUHU21623XXSP,2013-02-11 14:48:00,
2013-02-11 06:53:00,34.9,19.0,30.02,North,0,7.4,14.8,52,0.00,,,0.00,WUHU21623XXSP,2013-02-11 14:53:00,
2013-02-11 06:58:00,34.9,18.6,30.02,NNE,22,4.5,16.1,51,0.00,,,0.00,WUHU21623XXSP,2013-02-11 14:58:00,
2013-02-11 07:03:00,34.7,18.4,30.03,NNE,22,11.9,16.1,51,0.00,,,0.00,WUHU21623XXSP,2013-02-11 15:03:00,
2013-02-11 07:08:00,34.7,18.4,30.02,North,0,7.4,15.7,51,0.00,,,0.00,WUHU21623XXSP,2013-02-11 15:08:00,
2013-02-11 07:13:00,34.9,18.6,30.02,North,0,12.5,16.3,51,0.00,,,0.00,WUHU21623XXSP,2013-02-11 15:13:00,
2013-02-11 07:18:00,35.2,18.5,30.02,NNW,337,9.8,22.8,50,0.00,,,0.00,WUHU21623XXSP,2013-02-11 15:18:00,
2013-02-11 07:23:00,35.8,19.0,30.02,NNW,337,8.3,22.8,50,0.00,,,0.00,WUHU21623XXSP,2013-02-11 15:23:00,
2013-02-11 07:28:00,36.1,19.3,30.02,North,0,5.6,22.6,50,0.00,,,0.00,WUHU21623XXSP,2013-02-11 15:28:00,
2013-02-11 07:33:00,36.5,19.1,30.02,NW,315,5.6,22.6,49,0.00,,,0.00,WUHU21623XXSP,2013-02-11 15:33:00,
2013-02-11 07:38:00,37.0,19.6,30.03,NW,315,2.0,18.8,49,0.00,,,0.00,WUHU21623XXSP,2013-02-11 15:38:00,
2013-02-11 07:43:00,37.4,20.0,30.03,WSW,247,3.8,14.1,49,0.00,,,0.00,WUHU21623XXSP,2013-02-11 15:43:00,
2013-02-11 07:48:00,37.9,19.9,30.03,NNW,337,6.7,16.3,48,0.00,,,0.00,WUHU21623XXSP,2013-02-11 15:48:00,
2013-02-11 07:53:00,38.1,19.6,30.03,NW,315,8.7,21.0,47,0.00,,,0.00,WUHU21623XXSP,2013-02-11 15:53:00,
2013-02-11 07:58:00,38.3,19.2,30.04,NNW,337,15.9,25.5,46,0.00,,,0.00,WUHU21623XXSP,2013-02-11 15:58:00,
2013-02-11 08:03:00,38.8,20.2,30.04,NW,315,8.1,25.5,47,0.00,,,0.00,WUHU21623XXSP,2013-02-11 16:03:00,
2013-02-11 08:08:00,38.8,19.7,30.04,NNE,22,3.1,21.9,46,0.00,,,0.00,WUHU21623XXSP,2013-02-11 16:08:00,
2013-02-11 08:13:00,39.4,19.7,30.04,NNW,337,11.2,23.7,45,0.00,,,0.00,WUHU21623XXSP,2013-02-11 16:13:00,
2013-02-11 08:18:00,39.9,19.6,30.04,NNW,337,11.9,23.7,44,0.00,,,0.00,WUHU21623XXSP,2013-02-11 16:18:00,
2013-02-11 08:23:00,40.3,19.9,30.04,NNW,337,12.8,20.8,44,0.00,,,0.00,WUHU21623XXSP,2013-02-11 16:23:00,
2013-02-11 08:28:00,39.9,19.6,30.05,NNW,337,6.5,21.3,44,0.00,,,0.00,WUHU21623XXSP,2013-02-11 16:28:00,
2013-02-11 08:33:00,39.9,19.6,30.05,NNW,337,19.7,21.3,44,0.00,,,0.00,WUHU21623XXSP,2013-02-11 16:33:00,
2013-02-11 08:38:00,40.3,19.4,30.05,North,0,6.0,19.7,43,0.00,,,0.00,WUHU21623XXSP,2013-02-11 16:38:00,
2013-02-11 08:43:00,40.6,19.7,30.06,North,0,11.6,22.6,43,0.00,,,0.00,WUHU21623XXSP,2013-02-11 16:43:00,
2013-02-11 08:48:00,41.4,20.9,30.06,North,0,0.7,22.6,44,0.00,,,0.00,WUHU21623XXSP,2013-02-11 16:48:00,
2013-02-11 08:53:00,41.4,20.4,30.06,NNW,337,18.6,22.4,43,0.00,,,0.00,WUHU21623XXSP,2013-02-11 16:53:00,
2013-02-11 08:58:00,40.8,19.4,30.06,NNW,337,11.2,23.0,42,0.00,,,0.00,WUHU21623XXSP,2013-02-11 16:58:00,
2013-02-11 09:03:00,40.6,19.2,30.07,NW,315,21.3,23.0,42,0.00,,,0.00,WUHU21623XXSP,2013-02-11 17:03:00,
2013-02-11 09:08:00,41.5,20.6,30.07,North,0,11.0,21.7,43,0.00,,,0.00,WUHU21623XXSP,2013-02-11 17:08:00,
2013-02-11 09:13:00,41.2,19.7,30.07,NNE,22,13.2,20.1,42,0.00,,,0.00,WUHU21623XXSP,2013-02-11 17:13:00,
2013-02-11 09:18:00,42.1,20.5,30.07,NNW,337,6.3,19.0,42,0.00,,,0.00,WUHU21623XXSP,2013-02-11 17:18:00,
2013-02-11 09:23:00,42.4,20.9,30.07,NW,315,18.8,18.8,42,0.00,,,0.00,WUHU21623XXSP,2013-02-11 17:23:00,
2013-02-11 09:28:00,42.4,20.9,30.07,NNE,22,12.1,22.1,42,0.00,,,0.00,WUHU21623XXSP,2013-02-11 17:28:00,
2013-02-11 09:33:00,43.0,20.8,30.08,NNW,337,19.2,22.1,41,0.00,,,0.00,WUHU21623XXSP,2013-02-11 17:33:00,
2013-02-11 09:38:00,42.6,20.0,30.08,North,0,12.5,19.5,40,0.00,,,0.00,WUHU21623XXSP,2013-02-11 17:38:00,
2013-02-11 09:43:00,43.5,20.8,30.08,NNW,337,6.9,22.4,40,0.00,,,0.00,WUHU21623XXSP,2013-02-11 17:43:00,
2013-02-11 09:48:00,44.6,21.1,30.08,NW,315,10.5,22.4,39,0.00,,,0.00,WUHU21623XXSP,2013-02-11 17:48:00,
2013-02-11 09:53:00,44.6,20.4,30.08,North,0,5.8,20.8,38,0.00,,,0.00,WUHU21623XXSP,2013-02-11 17:53:00,
2013-02-11 09:58:00,45.1,20.2,30.08,NNW,337,8.3,20.8,37,0.00,,,0.00,WUHU21623XXSP,2013-02-11 17:58:00,
2013-02-11 10:03:00,44.1,17.9,30.08,NNE,22,14.1,23.7,35,0.00,,,0.00,WUHU21623XXSP,2013-02-11 18:03:00,
2013-02-11 10:08:00,42.6,17.3,30.08,NNE,22,25.7,25.7,36,0.00,,,0.00,WUHU21623XXSP,2013-02-11 18:08:00,
2013-02-11 10:13:00,42.6,18.0,30.09,NNE,22,8.3,25.7,37,0.00,,,0.00,WUHU21623XXSP,2013-02-11 18:13:00,
2013-02-11 10:18:00,43.3,18.6,30.09,NW,315,13.4,21.5,37,0.00,,,0.00,WUHU21623XXSP,2013-02-11 18:18:00,
2013-02-11 10:23:00,44.4,18.9,30.09,NNE,22,14.5,20.8,36,0.00,,,0.00,WUHU21623XXSP,2013-02-11 18:23:00,
2013-02-11 10:28:00,44.8,19.2,30.09,NNW,337,13.9,20.8,36,0.00,,,0.00,WUHU21623XXSP,2013-02-11 18:28:00,
2013-02-11 10:34:00,44.6,19.1,30.09,North,0,17.7,22.8,36,0.00,,,0.00,WUHU21623XXSP,2013-02-11 18:34:00,
2013-02-11 10:39:00,44.2,18.1,30.09,NNW,337,12.8,22.8,35,0.00,,,0.00,WUHU21623XXSP,2013-02-11 18:39:00,
2013-02-11 10:44:00,45.1,18.2,30.09,North,0,9.4,25.1,34,0.00,,,0.00,WUHU21623XXSP,2013-02-11 18:44:00,
2013-02-11 10:49:00,44.8,17.9,30.08,North,0,11.0,22.8,34,0.00,,,0.00,WUHU21623XXSP,2013-02-11 18:49:00,
2013-02-11 10:54:00,44.6,17.1,30.09,NNE,22,1.1,25.1,33,0.00,,,0.00,WUHU21623XXSP,2013-02-11 18:54:00,
2013-02-11 10:59:00,44.2,17.4,30.08,North,0,14.8,25.1,34,0.00,,,0.00,WUHU21623XXSP,2013-02-11 18:59:00,
2013-02-11 11:04:00,43.7,16.3,30.09,North,0,11.4,25.1,33,0.00,,,0.00,WUHU21623XXSP,2013-02-11 19:04:00,
2013-02-11 11:09:00,43.3,16.6,30.09,North,0,13.2,25.1,34,0.00,,,0.00,WUHU21623XXSP,2013-02-11 19:09:00,
2013-02-11 11:14:00,43.3,17.3,30.09,North,0,4.3,24.6,35,0.00,,,0.00,WUHU21623XXSP,2013-02-11 19:14:00,
2013-02-11 11:19:00,45.0,17.4,30.09,NNE,22,14.5,27.3,33,0.00,,,0.00,WUHU21623XXSP,2013-02-11 19:19:00,
2013-02-11 11:24:00,43.9,17.1,30.08,North,0,10.3,27.3,34,0.00,,,0.00,WUHU21623XXSP,2013-02-11 19:24:00,
2013-02-11 11:29:00,44.4,17.6,30.08,WNW,292,8.1,23.3,34,0.00,,,0.00,WUHU21623XXSP,2013-02-11 19:29:00,
2013-02-11 11:34:00,46.0,18.4,30.08,North,0,13.0,21.0,33,0.00,,,0.00,WUHU21623XXSP,2013-02-11 19:34:00,
2013-02-11 11:39:00,46.8,19.0,30.08,North,0,9.2,21.0,33,0.00,,,0.00,WUHU21623XXSP,2013-02-11 19:39:00,
2013-02-11 11:44:00,47.3,17.5,30.08,NNW,337,6.3,23.9,30,0.00,,,0.00,WUHU21623XXSP,2013-02-11 19:44:00,
2013-02-11 11:49:00,47.5,17.7,30.08,NW,315,13.6,23.9,30,0.00,,,0.00,WUHU21623XXSP,2013-02-11 19:49:00,
2013-02-11 11:54:00,48.4,18.5,30.08,NW,315,11.6,22.1,30,0.00,,,0.00,WUHU21623XXSP,2013-02-11 19:54:00,
2013-02-11 11:59:00,48.6,16.7,30.08,North,0,4.5,22.1,28,0.00,,,0.00,WUHU21623XXSP,2013-02-11 19:59:00,
2013-02-11 12:04:00,48.0,17.2,30.08,NNW,337,17.0,23.7,29,0.00,,,0.00,WUHU21623XXSP,2013-02-11 20:04:00,
2013-02-11 12:09:00,48.7,16.9,30.08,North,0,6.3,23.7,28,0.00,,,0.00,WUHU21623XXSP,2013-02-11 20:09:00,
2013-02-11 12:14:00,49.1,17.2,30.08,North,0,7.4,22.6,28,0.00,,,0.00,WUHU21623XXSP,2013-02-11 20:14:00,
2013-02-11 12:19:00,48.7,15.9,30.08,North,0,11.0,22.6,27,0.00,,,0.00,WUHU21623XXSP,2013-02-11 20:19:00,
2013-02-11 12:24:00,48.0,15.3,30.08,NW,315,8.3,23.5,27,0.00,,,0.00,WUHU21623XXSP,2013-02-11 20:24:00,
2013-02-11 12:29:00,48.7,15.0,30.08,NNW,337,9.2,23.5,26,0.00,,,0.00,WUHU21623XXSP,2013-02-11 20:29:00,
2013-02-11 12:34:00,48.7,15.0,30.08,NNW,337,18.3,22.4,26,0.00,,,0.00,WUHU21623XXSP,2013-02-11 20:34:00,
2013-02-11 12:39:00,48.0,13.5,30.08,NNE,22,19.5,22.4,25,0.00,,,0.00,WUHU21623XXSP,2013-02-11 20:39:00,
2013-02-11 12:44:00,48.0,13.5,30.08,North,0,15.9,22.1,25,0.00,,,0.00,WUHU21623XXSP,2013-02-11 20:44:00,
2013-02-11 12:49:00,47.1,13.6,30.07,NNE,22,8.9,18.3,26,0.00,,,0.00,WUHU21623XXSP,2013-02-11 20:49:00,
2013-02-11 12:54:00,47.1,13.6,30.07,North,0,9.8,18.8,26,0.00,,,0.00,WUHU21623XXSP,2013-02-11 20:54:00,
2013-02-11 12:59:00,47.7,13.2,30.07,North,0,25.9,25.9,25,0.00,,,0.00,WUHU21623XXSP,2013-02-11 20:59:00,
2013-02-11 13:04:00,47.1,12.7,30.07,NNE,22,3.6,25.9,25,0.00,,,0.00,WUHU21623XXSP,2013-02-11 21:04:00,
2013-02-11 13:09:00,46.2,11.9,30.07,WSW,247,15.2,24.4,25,0.00,,,0.00,WUHU21623XXSP,2013-02-11 21:09:00,
2013-02-11 13:14:00,46.8,12.4,30.07,WSW,247,4.5,24.4,25,0.00,,,0.00,WUHU21623XXSP,2013-02-11 21:14:00,
2013-02-11 13:19:00,47.5,12.1,30.06,WSW,247,14.3,19.2,24,0.00,,,0.00,WUHU21623XXSP,2013-02-11 21:19:00,
2013-02-11 13:24:00,46.6,11.3,30.07,WSW,247,10.1,23.7,24,0.00,,,0.00,WUHU21623XXSP,2013-02-11 21:24:00,
2013-02-11 13:29:00,46.6,11.3,30.07,WSW,247,10.3,23.7,24,0.00,,,0.00,WUHU21623XXSP,2013-02-11 21:29:00,
2013-02-11 13:34:00,46.2,11.0,30.07,WSW,247,8.7,19.0,24,0.00,,,0.00,WUHU21623XXSP,2013-02-11 21:34:00,
2013-02-11 13:39:00,48.0,11.6,30.07,WSW,247,5.4,19.7,23,0.00,,,0.00,WUHU21623XXSP,2013-02-11 21:39:00,
2013-02-11 13:44:00,48.0,11.6,30.07,WSW,247,3.8,19.7,23,0.00,,,0.00,WUHU21623XXSP,2013-02-11 21:44:00,
2013-02-11 13:49:00,47.3,9.2,30.08,WSW,247,24.8,24.8,21,0.00,,,0.00,WUHU21623XXSP,2013-02-11 21:49:00,
2013-02-11 13:54:00,46.6,9.5,30.08,NE,45,12.1,26.8,22,0.00,,,0.00,WUHU21623XXSP,2013-02-11 21:54:00,
2013-02-11 14:00:00,46.6,9.5,30.08,WSW,247,8.1,26.8,22,0.00,,,0.00,WUHU21623XXSP,2013-02-11 22:00:00,
2013-02-11 14:05:00,46.0,9.1,30.07,WSW,247,14.1,21.5,22,0.00,,,0.00,WUHU21623XXSP,2013-02-11 22:05:00,
2013-02-11 14:10:00,46.2,8.3,30.07,WSW,247,21.9,21.9,21,0.00,,,0.00,WUHU21623XXSP,2013-02-11 22:10:00,
2013-02-11 14:15:00,47.3,10.1,30.07,WSW,247,3.4,21.9,22,0.00,,,0.00,WUHU21623XXSP,2013-02-11 22:15:00,
2013-02-11 14:20:00,47.3,10.1,30.07,WSW,247,7.4,16.1,22,0.00,,,0.00,WUHU21623XXSP,2013-02-11 22:20:00,
2013-02-11 14:25:00,48.0,10.7,30.07,WSW,247,8.7,20.4,22,0.00,,,0.00,WUHU21623XXSP,2013-02-11 22:25:00,
2013-02-11 14:30:00,47.7,10.4,30.07,WSW,247,14.8,22.4,22,0.00,,,0.00,WUHU21623XXSP,2013-02-11 22:30:00,
2013-02-11 14:35:00,48.0,9.7,30.07,WSW,247,9.2,22.4,21,0.00,,,0.00,WUHU21623XXSP,2013-02-11 22:35:00,
2013-02-11 14:40:00,48.0,9.7,30.07,WSW,247,8.7,18.3,21,0.00,,,0.00,WUHU21623XXSP,2013-02-11 22:40:00,
2013-02-11 14:45:00,46.2,8.3,30.07,WSW,247,27.3,27.3,21,0.00,,,0.00,WUHU21623XXSP,2013-02-11 22:45:00,
2013-02-11 14:50:00,45.7,8.8,30.07,WSW,247,11.9,27.3,22,0.00,,,0.00,WUHU21623XXSP,2013-02-11 22:50:00,
2013-02-11 14:55:00,46.2,9.2,30.07,WSW,247,13.6,15.2,22,0.00,,,0.00,WUHU21623XXSP,2013-02-11 22:55:00,
2013-02-11 15:00:00,46.0,9.1,30.08,WSW,247,4.5,20.8,22,0.00,,,0.00,WUHU21623XXSP,2013-02-11 23:00:00,
2013-02-11 15:05:00,46.2,8.3,30.08,WSW,247,10.5,20.8,21,0.00,,,0.00,WUHU21623XXSP,2013-02-11 23:05:00,
2013-02-11 15:10:00,45.5,7.7,30.07,WSW,247,13.4,19.7,21,0.00,,,0.00,WUHU21623XXSP,2013-02-11 23:10:00,
2013-02-11 15:15:00,45.1,7.4,30.07,WSW,247,11.2,23.7,21,0.00,,,0.00,WUHU21623XXSP,2013-02-11 23:15:00,
2013-02-11 15:20:00,45.1,8.3,30.07,WSW,247,8.5,24.8,22,0.00,,,0.00,WUHU21623XXSP,2013-02-11 23:20:00,
2013-02-11 15:25:00,45.7,7.8,30.08,WSW,247,8.9,24.8,21,0.00,,,0.00,WUHU21623XXSP,2013-02-11 23:25:00,
2013-02-11 15:30:00,45.1,8.2,30.08,WSW,247,3.8,23.0,22,0.00,,,0.00,WUHU21623XXSP,2013-02-11 23:30:00,
2013-02-11 15:35:00,45.0,7.3,30.08,WSW,247,11.4,23.0,21,0.00,,,0.00,WUHU21623XXSP,2013-02-11 23:35:00,
2013-02-11 15:40:00,45.1,7.4,30.08,WSW,247,8.1,19.5,21,0.00,,,0.00,WUHU21623XXSP,2013-02-11 23:40:00,
2013-02-11 15:45:00,45.0,8.2,30.08,WSW,247,7.2,17.4,22,0.00,,,0.00,WUHU21623XXSP,2013-02-11 23:45:00,
2013-02-11 15:50:00,44.4,7.7,30.08,WSW,247,12.3,17.4,22,0.00,,,0.00,WUHU21623XXSP,2013-02-11 23:50:00,
2013-02-11 15:55:00,44.4,7.7,30.08,WSW,247,8.3,17.9,22,0.00,,,0.00,WUHU21623XXSP,2013-02-11 23:55:00,
2013-02-11 16:00:00,44.4,7.7,30.08,WSW,247,10.5,19.7,22,0.00,,,0.00,WUHU21623XXSP,2013-02-12 00:00:00,
2013-02-11 16:05:00,44.2,7.6,30.09,WSW,247,17.9,19.7,22,0.00,,,0.00,WUHU21623XXSP,2013-02-12 00:05:00,
2013-02-11 16:10:00,44.6,7.0,30.09,WSW,247,15.2,18.3,21,0.00,,,0.00,WUHU21623XXSP,2013-02-12 00:10:00,
2013-02-11 16:15:00,44.4,7.7,30.09,WSW,247,4.5,17.4,22,0.00,,,0.00,WUHU21623XXSP,2013-02-12 00:15:00,
2013-02-11 16:20:00,45.0,8.0,30.09,WSW,247,4.7,16.1,22,0.00,,,0.00,WUHU21623XXSP,2013-02-12 00:20:00,
2013-02-11 16:25:00,44.4,7.7,30.09,WSW,247,15.9,16.1,22,0.00,,,0.00,WUHU21623XXSP,2013-02-12 00:25:00,
2013-02-11 16:30:00,43.5,7.8,30.10,WSW,247,7.2,21.9,23,0.00,,,0.00,WUHU21623XXSP,2013-02-12 00:30:00,
2013-02-11 16:35:00,43.5,6.9,30.10,WSW,247,8.9,21.9,22,0.00,,,0.00,WUHU21623XXSP,2013-02-12 00:35:00,
2013-02-11 16:40:00,43.5,7.8,30.10,WSW,247,8.9,16.3,23,0.00,,,0.00,WUHU21623XXSP,2013-02-12 00:40:00,
2013-02-11 16:45:00,43.0,7.3,30.10,WSW,247,2.9,22.6,23,0.00,,,0.00,WUHU21623XXSP,2013-02-12 00:45:00,
2013-02-11 16:50:00,43.0,7.3,30.10,WSW,247,9.2,22.6,23,0.00,,,0.00,WUHU21623XXSP,2013-02-12 00:50:00,
2013-02-11 16:55:00,42.6,6.1,30.10,WSW,247,7.6,17.2,22,0.00,,,0.00,WUHU21623XXSP,2013-02-12 00:55:00,
2013-02-11 17:00:00,42.3,5.8,30.10,WSW,247,6.9,17.2,22,0.00,,,0.00,WUHU21623XXSP,2013-02-12 01:00:00,
2013-02-11 17:05:00,41.9,6.4,30.10,WSW,247,10.3,15.9,23,0.00,,,0.00,WUHU21623XXSP,2013-02-12 01:05:00,
2013-02-11 17:10:00,41.7,6.3,30.10,NE,45,11.4,15.9,23,0.00,,,0.00,WUHU21623XXSP,2013-02-12 01:10:00,
2013-02-11 17:15:00,41.4,6.9,30.10,NNE,22,6.0,13.9,24,0.00,,,0.00,WUHU21623XXSP,2013-02-12 01:15:00,
2013-02-11 17:21:00,41.2,6.8,30.11,NE,45,8.9,13.9,24,0.00,,,0.00,WUHU21623XXSP,2013-02-12 01:21:00,
2013-02-11 17:26:00,40.8,6.5,30.11,North,0,11.9,15.0,24,0.00,,,0.00,WUHU21623XXSP,2013-02-12 01:26:00,
2013-02-11 17:31:00,40.8,6.5,30.11,NNE,22,5.1,15.0,24,0.00,,,0.00,WUHU21623XXSP,2013-02-12 01:31:00,
2013-02-11 17:36:00,40.6,6.3,30.11,NNE,22,8.3,14.1,24,0.00,,,0.00,WUHU21623XXSP,2013-02-12 01:36:00,
2013-02-11 17:41:00,40.3,6.9,30.11,NNE,22,5.4,14.1,25,0.00,,,0.00,WUHU21623XXSP,2013-02-12 01:41:00,
2013-02-11 17:46:00,40.5,7.0,30.11,North,0,0.0,11.2,25,0.00,,,0.00,WUHU21623XXSP,2013-02-12 01:46:00,
2013-02-11 17:51:00,40.3,6.9,30.11,NNE,22,7.8,10.5,25,0.00,,,0.00,WUHU21623XXSP,2013-02-12 01:51:00,
2013-02-11 17:56:00,40.3,6.9,30.11,North,0,9.2,10.5,25,0.00,,,0.00,WUHU21623XXSP,2013-02-12 01:56:00,
2013-02-11 18:01:00,39.9,6.5,30.11,NNE,22,4.7,10.1,25,0.00,,,0.00,WUHU21623XXSP,2013-02-12 02:01:00,
2013-02-11 18:06:00,39.9,6.5,30.11,NE,45,7.4,8.5,25,0.00,,,0.00,WUHU21623XXSP,2013-02-12 02:06:00,
2013-02-11 18:11:00,39.7,7.3,30.12,NE,45,7.2,14.1,26,0.00,,,0.00,WUHU21623XXSP,2013-02-12 02:11:00,
2013-02-11 18:16:00,39.7,7.3,30.12,NNE,22,0.0,16.6,26,0.00,,,0.00,WUHU21623XXSP,2013-02-12 02:16:00,
2013-02-11 18:21:00,39.7,7.3,30.12,NE,45,5.8,16.6,26,0.00,,,0.00,WUHU21623XXSP,2013-02-12 02:21:00,
2013-02-11 18:26:00,39.6,7.1,30.12,NE,45,0.0,14.8,26,0.00,,,0.00,WUHU21623XXSP,2013-02-12 02:26:00,
2013-02-11 18:31:00,39.4,7.0,30.11,NE,45,3.8,16.1,26,0.00,,,0.00,WUHU21623XXSP,2013-02-12 02:31:00,
2013-02-11 18:36:00,39.6,7.1,30.12,NNE,22,2.5,16.1,26,0.00,,,0.00,WUHU21623XXSP,2013-02-12 02:36:00,
2013-02-11 18:41:00,39.6,7.1,30.12,NNE,22,7.4,15.2,26,0.00,,,0.00,WUHU21623XXSP,2013-02-12 02:41:00,
2013-02-11 18:46:00,39.6,7.1,30.12,NNE,22,8.1,12.8,26,0.00,,,0.00,WUHU21623XXSP,2013-02-12 02:46:00,
2013-02-11 18:51:00,39.6,7.1,30.13,NNE,22,0.0,8.9,26,0.00,,,0.00,WUHU21623XXSP,2013-02-12 02:51:00,
2013-02-11 18:56:00,39.7,7.3,30.13,North,0,4.7,14.8,26,0.00,,,0.00,WUHU21623XXSP,2013-02-12 02:56:00,
2013-02-11 19:01:00,39.7,7.3,30.13,North,0,0.0,14.8,26,0.00,,,0.00,WUHU21623XXSP,2013-02-12 03:01:00,
2013-02-11 19:06:00,39.7,7.3,30.13,North,0,0.0,10.1,26,0.00,,,0.00,WUHU21623XXSP,2013-02-12 03:06:00,
2013-02-11 19:11:00,39.9,7.4,30.14,NNE,22,0.0,13.9,26,0.00,,,0.00,WUHU21623XXSP,2013-02-12 03:11:00,
2013-02-11 19:16:00,39.9,7.4,30.14,NNE,22,0.0,13.9,26,0.00,,,0.00,WUHU21623XXSP,2013-02-12 03:16:00,
2013-02-11 19:21:00,39.7,7.3,30.14,NNE,22,0.0,4.5,26,0.00,,,0.00,WUHU21623XXSP,2013-02-12 03:21:00,
2013-02-11 19:26:00,39.6,7.1,30.13,NNE,22,2.7,8.3,26,0.00,,,0.00,WUHU21623XXSP,2013-02-12 03:26:00,
2013-02-11 19:31:00,39.4,7.0,30.13,NNE,22,0.0,8.3,26,0.00,,,0.00,WUHU21623XXSP,2013-02-12 03:31:00,
2013-02-11 19:36:00,39.6,7.1,30.13,NNE,22,0.0,6.0,26,0.00,,,0.00,WUHU21623XXSP,2013-02-12 03:36:00,
2013-02-11 19:41:00,39.9,8.3,30.14,NNE,22,0.0,2.0,27,0.00,,,0.00,WUHU21623XXSP,2013-02-12 03:41:00,
2013-02-11 19:46:00,39.7,8.2,30.14,NNE,22,0.0,0.0,27,0.00,,,0.00,WUHU21623XXSP,2013-02-12 03:46:00,
2013-02-11 19:51:00,39.4,7.9,30.14,NNE,22,0.0,0.0,27,0.00,,,0.00,WUHU21623XXSP,2013-02-12 03:51:00,
2013-02-11 19:56:00,39.0,7.5,30.14,NNE,22,0.0,6.0,27,0.00,,,0.00,WUHU21623XXSP,2013-02-12 03:56:00,
2013-02-11 20:01:00,39.0,7.5,30.14,NNE,22,0.0,6.0,27,0.00,,,0.00,WUHU21623XXSP,2013-02-12 04:01:00,
2013-02-11 20:06:00,38.8,7.4,30.14,NNE,22,0.0,4.5,27,0.00,,,0.00,WUHU21623XXSP,2013-02-12 04:06:00,
2013-02-11 20:11:00,38.8,7.4,30.14,NNE,22,0.0,4.5,27,0.00,,,0.00,WUHU21623XXSP,2013-02-12 04:11:00,
2013-02-11 20:16:00,38.8,7.4,30.14,NNE,22,0.0,4.0,27,0.00,,,0.00,WUHU21623XXSP,2013-02-12 04:16:00,
2013-02-11 20:21:00,38.5,7.1,30.14,NNE,22,0.0,5.6,27,0.00,,,0.00,WUHU21623XXSP,2013-02-12 04:21:00,
2013-02-11 20:26:00,39.0,7.5,30.14,NNE,22,0.0,5.6,27,0.00,,,0.00,WUHU21623XXSP,2013-02-12 04:26:00,
2013-02-11 20:31:00,38.8,7.4,30.14,NNE,22,0.0,1.3,27,0.00,,,0.00,WUHU21623XXSP,2013-02-12 04:31:00,
2013-02-11 20:36:00,38.5,7.1,30.14,NNE,22,0.0,5.1,27,0.00,,,0.00,WUHU21623XXSP,2013-02-12 04:36:00,
2013-02-11 20:41:00,38.5,7.1,30.14,NNE,22,0.0,5.1,27,0.00,,,0.00,WUHU21623XXSP,2013-02-12 04:41:00,
2013-02-11 20:46:00,38.8,7.4,30.14,NNE,22,0.0,2.5,27,0.00,,,0.00,WUHU21623XXSP,2013-02-12 04:46:00,
2013-02-11 20:51:00,38.8,8.3,30.14,NNE,22,0.0,2.5,28,0.00,,,0.00,WUHU21623XXSP,2013-02-12 04:51:00,
2013-02-11 20:56:00,38.7,8.1,30.15,NNE,22,0.0,2.2,28,0.00,,,0.00,WUHU21623XXSP,2013-02-12 04:56:00,
2013-02-11 21:00:00,38.8,8.3,30.15,NNE,22,0.0,1.1,28,0.00,,,0.00,WUHU21623XXSP,2013-02-12 05:00:00,
2013-02-11 21:01:00,38.8,8.3,30.15,NNE,22,1.6,2.2,28,0.00,,,0.00,WUHU21623XXSP,2013-02-12 05:01:00,
2013-02-11 21:06:00,38.8,7.4,30.15,NNE,22,0.0,3.1,27,0.00,,,0.00,WUHU21623XXSP,2013-02-12 05:06:00,
2013-02-11 21:11:00,38.8,8.3,30.16,NNE,22,0.0,3.1,28,0.00,,,0.00,WUHU21623XXSP,2013-02-12 05:11:00,
2013-02-11 21:16:00,38.8,8.3,30.16,NNE,22,0.0,0.0,28,0.00,,,0.00,WUHU21623XXSP,2013-02-12 05:16:00,
2013-02-11 21:21:00,38.5,8.0,30.16,NNE,22,0.0,0.0,28,0.00,,,0.00,WUHU21623XXSP,2013-02-12 05:21:00,
2013-02-11 21:26:00,38.5,8.9,30.16,NNE,22,0.0,0.0,29,0.00,,,0.00,WUHU21623XXSP,2013-02-12 05:26:00,
2013-02-11 21:31:00,38.5,8.9,30.16,NNE,22,0.0,2.2,29,0.00,,,0.00,WUHU21623XXSP,2013-02-12 05:31:00,
2013-02-11 21:36:00,38.3,7.8,30.16,NNE,22,0.0,2.2,28,0.00,,,0.00,WUHU21623XXSP,2013-02-12 05:36:00,
2013-02-11 21:41:00,38.1,7.6,30.16,NNE,22,0.0,1.6,28,0.00,,,0.00,WUHU21623XXSP,2013-02-12 05:41:00,
2013-02-11 21:46:00,38.1,7.6,30.16,NNE,22,0.0,0.0,28,0.00,,,0.00,WUHU21623XXSP,2013-02-12 05:46:00,
2013-02-11 21:51:00,37.9,7.5,30.16,NNE,22,0.0,0.0,28,0.00,,,0.00,WUHU21623XXSP,2013-02-12 05:51:00,
2013-02-11 21:56:00,37.8,7.3,30.16,NNE,22,0.0,0.0,28,0.00,,,0.00,WUHU21623XXSP,2013-02-12 05:56:00,
2013-02-11 22:01:00,37.9,7.5,30.16,NNE,22,0.0,0.0,28,0.00,,,0.00,WUHU21623XXSP,2013-02-12 06:01:00,
2013-02-11 22:06:00,37.4,7.0,30.16,NNE,22,0.0,0.0,28,0.00,,,0.00,WUHU21623XXSP,2013-02-12 06:06:00,
2013-02-11 22:11:00,37.6,7.2,30.16,NNE,22,0.0,0.0,28,0.00,,,0.00,WUHU21623XXSP,2013-02-12 06:11:00,
2013-02-11 22:16:00,37.6,7.2,30.16,NNE,22,0.0,0.0,28,0.00,,,0.00,WUHU21623XXSP,2013-02-12 06:16:00,
2013-02-11 22:21:00,37.4,7.0,30.17,NNE,22,0.0,0.0,28,0.00,,,0.00,WUHU21623XXSP,2013-02-12 06:21:00,
2013-02-11 22:26:00,37.2,6.9,30.17,NNE,22,0.0,0.0,28,0.00,,,0.00,WUHU21623XXSP,2013-02-12 06:26:00,
2013-02-11 22:31:00,37.4,7.0,30.16,NNE,22,0.0,0.0,28,0.00,,,0.00,WUHU21623XXSP,2013-02-12 06:31:00,
2013-02-11 22:36:00,37.2,6.9,30.16,NNE,22,7.8,8.9,28,0.00,,,0.00,WUHU21623XXSP,2013-02-12 06:36:00,
2013-02-11 22:41:00,37.2,6.0,30.16,NNE,22,5.1,8.9,27,0.00,,,0.00,WUHU21623XXSP,2013-02-12 06:41:00,
2013-02-11 22:46:00,37.6,6.3,30.16,NNE,22,0.0,8.7,27,0.00,,,0.00,WUHU21623XXSP,2013-02-12 06:46:00,
2013-02-11 22:51:00,37.8,6.4,30.16,NE,45,0.0,9.8,27,0.00,,,0.00,WUHU21623XXSP,2013-02-12 06:51:00,
2013-02-11 22:56:00,37.9,6.6,30.16,NE,45,0.0,9.8,27,0.00,,,0.00,WUHU21623XXSP,2013-02-12 06:56:00,
2013-02-11 23:01:00,37.9,6.6,30.16,NE,45,0.0,5.4,27,0.00,,,0.00,WUHU21623XXSP,2013-02-12 07:01:00,
2013-02-11 23:06:00,37.9,6.6,30.16,NE,45,0.0,0.2,27,0.00,,,0.00,WUHU21623XXSP,2013-02-12 07:06:00,
2013-02-11 23:11:00,37.8,6.4,30.17,NE,45,0.0,0.2,27,0.00,,,0.00,WUHU21623XXSP,2013-02-12 07:11:00,
2013-02-11 23:16:00,37.9,6.6,30.17,NE,45,0.0,0.0,27,0.00,,,0.00,WUHU21623XXSP,2013-02-12 07:16:00,
2013-02-11 23:21:00,37.9,6.6,30.18,NE,45,0.0,0.0,27,0.00,,,0.00,WUHU21623XXSP,2013-02-12 07:21:00,
2013-02-11 23:26:00,37.6,6.3,30.17,NE,45,0.0,0.0,27,0.00,,,0.00,WUHU21623XXSP,2013-02-12 07:26:00,
2013-02-11 23:31:00,37.4,6.1,30.17,NE,45,0.0,0.0,27,0.00,,,0.00,WUHU21623XXSP,2013-02-12 07:31:00,
2013-02-11 23:36:00,37.2,6.9,30.17,NE,45,0.0,0.0,28,0.00,,,0.00,WUHU21623XXSP,2013-02-12 07:36:00,
2013-02-11 23:41:00,37.2,6.9,30.17,NE,45,0.0,0.0,28,0.00,,,0.00,WUHU21623XXSP,2013-02-12 07:41:00,
2013-02-11 23:46:00,36.9,6.5,30.17,NE,45,0.0,0.0,28,0.00,,,0.00,WUHU21623XXSP,2013-02-12 07:46:00,
2013-02-11 23:51:00,36.9,6.5,30.17,NE,45,0.0,0.0,28,0.00,,,0.00,WUHU21623XXSP,2013-02-12 07:51:00,
2013-02-11 23:56:00,36.9,6.5,30.17,NE,45,0.0,0.0,28,0.00,,,0.00,WUHU21623XXSP,2013-02-12 07:56:00,